sensor_id;sensor_type;location;lat;lon;timestamp;P1;durP1;ratioP1;P2;durP2;ratioP2
18983;SDS011;9626;52.552;13.436;2023-01-15T00:02:16;1.23;;;1.00;;
18983;SDS011;9626;52.552;13.436;2023-01-15T00:04:42;1.53;;;0.90;;
18983;SDS011;9626;52.552;13.436;2023-01-15T00:07:08;3.57;;;1.10;;
18983;SDS011;9626;52.552;13.436;2023-01-15T00:09:34;0.87;;;0.87;;
18983;SDS011;9626;52.552;13.436;2023-01-15T00:14:50;2.70;;;1.10;;
18983;SDS011;9626;52.552;13.436;2023-01-15T00:17:16;3.03;;;0.60;;
18983;SDS011;9626;52.552;13.436;2023-01-15T00:19:42;1.57;;;0.80;;
18983;SDS011;9626;52.552;13.436;2023-01-15T00:22:08;0.80;;;0.80;;
18983;SDS011;9626;52.552;13.436;2023-01-15T00:24:37;1.43;;;0.73;;
18983;SDS011;9626;52.552;13.436;2023-01-15T00:27:22;0.90;;;0.80;;
18983;SDS011;9626;52.552;13.436;2023-01-15T00:30:07;1.13;;;0.97;;
18983;SDS011;9626;52.552;13.436;2023-01-15T00:32:35;0.83;;;0.80;;
18983;SDS011;9626;52.552;13.436;2023-01-15T00:35:01;1.40;;;1.00;;
18983;SDS011;9626;52.552;13.436;2023-01-15T00:37:27;1.10;;;1.00;;
18983;SDS011;9626;52.552;13.436;2023-01-15T00:39:53;1.10;;;0.97;;
18983;SDS011;9626;52.552;13.436;2023-01-15T00:42:19;2.63;;;0.80;;
18983;SDS011;9626;52.552;13.436;2023-01-15T00:44:45;1.00;;;0.80;;
18983;SDS011;9626;52.552;13.436;2023-01-15T00:47:11;1.37;;;0.87;;
18983;SDS011;9626;52.552;13.436;2023-01-15T00:49:41;0.83;;;0.73;;
18983;SDS011;9626;52.552;13.436;2023-01-15T00:52:07;0.80;;;0.80;;
18983;SDS011;9626;52.552;13.436;2023-01-15T00:54:34;0.80;;;0.80;;
18983;SDS011;9626;52.552;13.436;2023-01-15T00:57:00;1.70;;;0.80;;
18983;SDS011;9626;52.552;13.436;2023-01-15T00:59:37;1.43;;;0.90;;
18983;SDS011;9626;52.552;13.436;2023-01-15T01:02:36;0.60;;;0.60;;
18983;SDS011;9626;52.552;13.436;2023-01-15T01:05:02;0.80;;;0.60;;
18983;SDS011;9626;52.552;13.436;2023-01-15T01:07:29;1.17;;;0.77;;
18983;SDS011;9626;52.552;13.436;2023-01-15T01:09:55;1.53;;;0.70;;
18983;SDS011;9626;52.552;13.436;2023-01-15T01:12:21;0.93;;;0.60;;
18983;SDS011;9626;52.552;13.436;2023-01-15T01:14:48;0.87;;;0.60;;
18983;SDS011;9626;52.552;13.436;2023-01-15T01:17:14;1.20;;;0.80;;
18983;SDS011;9626;52.552;13.436;2023-01-15T01:19:40;1.33;;;0.90;;
18983;SDS011;9626;52.552;13.436;2023-01-15T01:22:06;1.87;;;0.90;;
18983;SDS011;9626;52.552;13.436;2023-01-15T01:24:32;2.53;;;0.70;;
18983;SDS011;9626;52.552;13.436;2023-01-15T01:26:58;1.13;;;0.80;;
18983;SDS011;9626;52.552;13.436;2023-01-15T01:29:24;0.90;;;0.80;;
18983;SDS011;9626;52.552;13.436;2023-01-15T01:31:50;1.53;;;0.70;;
18983;SDS011;9626;52.552;13.436;2023-01-15T01:34:16;1.87;;;0.90;;
18983;SDS011;9626;52.552;13.436;2023-01-15T01:36:43;2.00;;;0.70;;
18983;SDS011;9626;52.552;13.436;2023-01-15T01:39:14;1.27;;;0.60;;
18983;SDS011;9626;52.552;13.436;2023-01-15T01:41:41;1.20;;;0.70;;
18983;SDS011;9626;52.552;13.436;2023-01-15T01:46:59;1.10;;;0.73;;
18983;SDS011;9626;52.552;13.436;2023-01-15T01:49:28;0.80;;;0.70;;
18983;SDS011;9626;52.552;13.436;2023-01-15T01:51:56;1.03;;;0.67;;
18983;SDS011;9626;52.552;13.436;2023-01-15T01:54:43;0.60;;;0.60;;
18983;SDS011;9626;52.552;13.436;2023-01-15T01:57:11;0.60;;;0.60;;
18983;SDS011;9626;52.552;13.436;2023-01-15T01:59:39;0.60;;;0.60;;
18983;SDS011;9626;52.552;13.436;2023-01-15T02:02:06;0.60;;;0.60;;
18983;SDS011;9626;52.552;13.436;2023-01-15T02:04:32;0.93;;;0.60;;
18983;SDS011;9626;52.552;13.436;2023-01-15T02:07:00;0.50;;;0.50;;
18983;SDS011;9626;52.552;13.436;2023-01-15T02:09:27;0.90;;;0.77;;
18983;SDS011;9626;52.552;13.436;2023-01-15T02:11:55;2.07;;;0.60;;
18983;SDS011;9626;52.552;13.436;2023-01-15T02:14:30;0.80;;;0.70;;
18983;SDS011;9626;52.552;13.436;2023-01-15T02:17:05;0.63;;;0.63;;
18983;SDS011;9626;52.552;13.436;2023-01-15T02:25:24;1.23;;;0.60;;
18983;SDS011;9626;52.552;13.436;2023-01-15T02:28:29;0.80;;;0.80;;
18983;SDS011;9626;52.552;13.436;2023-01-15T02:31:03;1.80;;;0.60;;
18983;SDS011;9626;52.552;13.436;2023-01-15T02:33:34;0.77;;;0.70;;
18983;SDS011;9626;52.552;13.436;2023-01-15T02:36:03;1.10;;;0.60;;
18983;SDS011;9626;52.552;13.436;2023-01-15T02:38:34;1.77;;;0.70;;
18983;SDS011;9626;52.552;13.436;2023-01-15T02:41:04;0.63;;;0.63;;
18983;SDS011;9626;52.552;13.436;2023-01-15T02:43:40;0.90;;;0.50;;
18983;SDS011;9626;52.552;13.436;2023-01-15T02:46:10;0.60;;;0.60;;
18983;SDS011;9626;52.552;13.436;2023-01-15T02:48:39;0.60;;;0.60;;
18983;SDS011;9626;52.552;13.436;2023-01-15T02:51:08;1.53;;;0.43;;
18983;SDS011;9626;52.552;13.436;2023-01-15T02:53:38;0.50;;;0.50;;
18983;SDS011;9626;52.552;13.436;2023-01-15T02:56:14;0.70;;;0.70;;
18983;SDS011;9626;52.552;13.436;2023-01-15T02:58:43;0.93;;;0.60;;
18983;SDS011;9626;52.552;13.436;2023-01-15T03:01:20;0.50;;;0.50;;
18983;SDS011;9626;52.552;13.436;2023-01-15T03:09:24;0.60;;;0.53;;
18983;SDS011;9626;52.552;13.436;2023-01-15T03:17:38;0.60;;;0.60;;
18983;SDS011;9626;52.552;13.436;2023-01-15T03:20:24;1.60;;;0.60;;
18983;SDS011;9626;52.552;13.436;2023-01-15T03:23:04;0.40;;;0.40;;
18983;SDS011;9626;52.552;13.436;2023-01-15T03:25:39;1.23;;;0.60;;
18983;SDS011;9626;52.552;13.436;2023-01-15T03:28:10;0.40;;;0.40;;
18983;SDS011;9626;52.552;13.436;2023-01-15T03:30:37;2.47;;;0.60;;
18983;SDS011;9626;52.552;13.436;2023-01-15T03:33:04;0.57;;;0.40;;
18983;SDS011;9626;52.552;13.436;2023-01-15T03:36:04;0.60;;;0.60;;
18983;SDS011;9626;52.552;13.436;2023-01-15T03:38:28;0.63;;;0.63;;
18983;SDS011;9626;52.552;13.436;2023-01-15T03:52:34;1.73;;;0.50;;
18983;SDS011;9626;52.552;13.436;2023-01-15T04:00:50;1.13;;;0.50;;
18983;SDS011;9626;52.552;13.436;2023-01-15T04:03:19;0.57;;;0.50;;
18983;SDS011;9626;52.552;13.436;2023-01-15T04:05:47;0.87;;;0.60;;
18983;SDS011;9626;52.552;13.436;2023-01-15T04:08:16;0.60;;;0.60;;
18983;SDS011;9626;52.552;13.436;2023-01-15T04:10:53;1.27;;;0.80;;
18983;SDS011;9626;52.552;13.436;2023-01-15T04:13:20;1.33;;;0.50;;
18983;SDS011;9626;52.552;13.436;2023-01-15T04:15:46;1.07;;;0.40;;
18983;SDS011;9626;52.552;13.436;2023-01-15T04:18:13;0.87;;;0.70;;
18983;SDS011;9626;52.552;13.436;2023-01-15T04:20:39;2.77;;;0.50;;
18983;SDS011;9626;52.552;13.436;2023-01-15T04:23:05;0.57;;;0.40;;
18983;SDS011;9626;52.552;13.436;2023-01-15T04:25:31;0.80;;;0.50;;
18983;SDS011;9626;52.552;13.436;2023-01-15T04:27:57;0.73;;;0.30;;
18983;SDS011;9626;52.552;13.436;2023-01-15T04:30:23;0.60;;;0.40;;
18983;SDS011;9626;52.552;13.436;2023-01-15T04:32:49;0.70;;;0.43;;
18983;SDS011;9626;52.552;13.436;2023-01-15T04:35:16;1.90;;;0.50;;
18983;SDS011;9626;52.552;13.436;2023-01-15T04:37:43;1.93;;;0.30;;
18983;SDS011;9626;52.552;13.436;2023-01-15T04:40:10;0.90;;;0.40;;
18983;SDS011;9626;52.552;13.436;2023-01-15T04:42:56;1.30;;;0.50;;
18983;SDS011;9626;52.552;13.436;2023-01-15T04:45:44;0.30;;;0.30;;
18983;SDS011;9626;52.552;13.436;2023-01-15T04:48:11;0.77;;;0.47;;
18983;SDS011;9626;52.552;13.436;2023-01-15T04:50:37;1.20;;;0.40;;
18983;SDS011;9626;52.552;13.436;2023-01-15T04:53:04;1.30;;;0.50;;
18983;SDS011;9626;52.552;13.436;2023-01-15T04:55:30;1.80;;;0.30;;
18983;SDS011;9626;52.552;13.436;2023-01-15T04:57:56;0.40;;;0.40;;
18983;SDS011;9626;52.552;13.436;2023-01-15T05:00:22;1.40;;;0.40;;
18983;SDS011;9626;52.552;13.436;2023-01-15T05:02:48;2.17;;;0.70;;
18983;SDS011;9626;52.552;13.436;2023-01-15T05:05:14;2.90;;;0.47;;
18983;SDS011;9626;52.552;13.436;2023-01-15T05:07:40;2.10;;;0.60;;
18983;SDS011;9626;52.552;13.436;2023-01-15T05:10:07;0.40;;;0.30;;
18983;SDS011;9626;52.552;13.436;2023-01-15T05:12:33;1.50;;;0.50;;
18983;SDS011;9626;52.552;13.436;2023-01-15T05:14:59;1.20;;;0.70;;
18983;SDS011;9626;52.552;13.436;2023-01-15T05:17:25;1.77;;;0.50;;
18983;SDS011;9626;52.552;13.436;2023-01-15T05:19:51;1.30;;;0.50;;
18983;SDS011;9626;52.552;13.436;2023-01-15T05:22:17;1.00;;;0.50;;
18983;SDS011;9626;52.552;13.436;2023-01-15T05:24:43;0.63;;;0.40;;
18983;SDS011;9626;52.552;13.436;2023-01-15T05:27:10;0.90;;;0.40;;
18983;SDS011;9626;52.552;13.436;2023-01-15T05:29:36;1.20;;;0.50;;
18983;SDS011;9626;52.552;13.436;2023-01-15T05:32:02;0.57;;;0.53;;
18983;SDS011;9626;52.552;13.436;2023-01-15T05:34:28;1.37;;;0.60;;
18983;SDS011;9626;52.552;13.436;2023-01-15T05:36:54;2.40;;;0.70;;
18983;SDS011;9626;52.552;13.436;2023-01-15T05:39:20;1.90;;;0.70;;
18983;SDS011;9626;52.552;13.436;2023-01-15T05:41:46;0.97;;;0.53;;
18983;SDS011;9626;52.552;13.436;2023-01-15T05:46:49;2.60;;;0.80;;
18983;SDS011;9626;52.552;13.436;2023-01-15T05:49:18;0.87;;;0.53;;
18983;SDS011;9626;52.552;13.436;2023-01-15T05:51:47;1.00;;;0.60;;
18983;SDS011;9626;52.552;13.436;2023-01-15T05:54:15;1.60;;;0.60;;
18983;SDS011;9626;52.552;13.436;2023-01-15T05:56:42;1.70;;;0.57;;
18983;SDS011;9626;52.552;13.436;2023-01-15T05:59:11;0.50;;;0.40;;
18983;SDS011;9626;52.552;13.436;2023-01-15T06:01:37;1.07;;;0.60;;
18983;SDS011;9626;52.552;13.436;2023-01-15T06:04:04;1.23;;;0.60;;
18983;SDS011;9626;52.552;13.436;2023-01-15T06:06:31;0.67;;;0.40;;
18983;SDS011;9626;52.552;13.436;2023-01-15T06:08:57;0.80;;;0.60;;
18983;SDS011;9626;52.552;13.436;2023-01-15T06:11:24;1.23;;;0.70;;
18983;SDS011;9626;52.552;13.436;2023-01-15T06:13:50;3.03;;;0.70;;
18983;SDS011;9626;52.552;13.436;2023-01-15T06:16:16;2.17;;;1.97;;
18983;SDS011;9626;52.552;13.436;2023-01-15T06:18:43;3.47;;;0.50;;
18983;SDS011;9626;52.552;13.436;2023-01-15T06:21:10;1.13;;;0.50;;
18983;SDS011;9626;52.552;13.436;2023-01-15T06:23:38;3.13;;;0.60;;
18983;SDS011;9626;52.552;13.436;2023-01-15T06:26:05;1.33;;;0.67;;
18983;SDS011;9626;52.552;13.436;2023-01-15T06:28:33;1.23;;;0.60;;
18983;SDS011;9626;52.552;13.436;2023-01-15T06:31:02;1.23;;;0.70;;
18983;SDS011;9626;52.552;13.436;2023-01-15T06:33:30;1.60;;;0.93;;
18983;SDS011;9626;52.552;13.436;2023-01-15T06:35:56;1.77;;;0.70;;
18983;SDS011;9626;52.552;13.436;2023-01-15T06:38:22;3.20;;;0.73;;
18983;SDS011;9626;52.552;13.436;2023-01-15T06:40:48;2.23;;;0.50;;
18983;SDS011;9626;52.552;13.436;2023-01-15T06:43:14;0.90;;;0.60;;
18983;SDS011;9626;52.552;13.436;2023-01-15T06:45:59;2.07;;;0.80;;
18983;SDS011;9626;52.552;13.436;2023-01-15T06:48:44;0.77;;;0.47;;
18983;SDS011;9626;52.552;13.436;2023-01-15T06:51:12;0.87;;;0.50;;
18983;SDS011;9626;52.552;13.436;2023-01-15T06:53:40;2.00;;;0.60;;
18983;SDS011;9626;52.552;13.436;2023-01-15T06:56:06;0.93;;;0.60;;
18983;SDS011;9626;52.552;13.436;2023-01-15T06:58:32;2.33;;;0.70;;
18983;SDS011;9626;52.552;13.436;2023-01-15T07:00:58;0.87;;;0.50;;
18983;SDS011;9626;52.552;13.436;2023-01-15T07:03:24;2.83;;;0.70;;
18983;SDS011;9626;52.552;13.436;2023-01-15T07:05:50;3.87;;;0.70;;
18983;SDS011;9626;52.552;13.436;2023-01-15T07:08:16;1.60;;;0.70;;
18983;SDS011;9626;52.552;13.436;2023-01-15T07:10:42;1.10;;;0.60;;
18983;SDS011;9626;52.552;13.436;2023-01-15T07:13:08;0.97;;;0.60;;
18983;SDS011;9626;52.552;13.436;2023-01-15T07:15:36;1.00;;;0.60;;
18983;SDS011;9626;52.552;13.436;2023-01-15T07:18:03;1.43;;;0.93;;
18983;SDS011;9626;52.552;13.436;2023-01-15T07:20:30;1.20;;;0.60;;
18983;SDS011;9626;52.552;13.436;2023-01-15T07:22:56;0.53;;;0.50;;
18983;SDS011;9626;52.552;13.436;2023-01-15T07:25:22;2.23;;;0.70;;
18983;SDS011;9626;52.552;13.436;2023-01-15T07:27:48;2.13;;;0.53;;
18983;SDS011;9626;52.552;13.436;2023-01-15T07:30:14;0.83;;;0.70;;
18983;SDS011;9626;52.552;13.436;2023-01-15T07:32:40;4.03;;;0.73;;
18983;SDS011;9626;52.552;13.436;2023-01-15T07:35:06;2.17;;;0.90;;
18983;SDS011;9626;52.552;13.436;2023-01-15T07:37:34;2.30;;;0.70;;
18983;SDS011;9626;52.552;13.436;2023-01-15T07:40:00;1.30;;;0.67;;
18983;SDS011;9626;52.552;13.436;2023-01-15T07:42:26;2.73;;;0.80;;
18983;SDS011;9626;52.552;13.436;2023-01-15T07:45:10;1.30;;;0.77;;
18983;SDS011;9626;52.552;13.436;2023-01-15T07:47:55;2.73;;;0.73;;
18983;SDS011;9626;52.552;13.436;2023-01-15T07:50:40;1.03;;;0.80;;
18983;SDS011;9626;52.552;13.436;2023-01-15T07:53:06;0.70;;;0.70;;
18983;SDS011;9626;52.552;13.436;2023-01-15T07:55:32;2.03;;;1.10;;
18983;SDS011;9626;52.552;13.436;2023-01-15T07:58:01;1.07;;;0.70;;
18983;SDS011;9626;52.552;13.436;2023-01-15T08:00:27;1.60;;;0.90;;
18983;SDS011;9626;52.552;13.436;2023-01-15T08:02:53;2.30;;;0.80;;
18983;SDS011;9626;52.552;13.436;2023-01-15T08:05:19;0.80;;;0.70;;
18983;SDS011;9626;52.552;13.436;2023-01-15T08:07:45;2.13;;;1.10;;
18983;SDS011;9626;52.552;13.436;2023-01-15T08:10:12;4.30;;;1.00;;
18983;SDS011;9626;52.552;13.436;2023-01-15T08:12:38;4.57;;;0.90;;
18983;SDS011;9626;52.552;13.436;2023-01-15T08:15:24;2.43;;;1.00;;
18983;SDS011;9626;52.552;13.436;2023-01-15T08:17:50;2.93;;;0.80;;
18983;SDS011;9626;52.552;13.436;2023-01-15T08:20:18;3.20;;;0.80;;
18983;SDS011;9626;52.552;13.436;2023-01-15T08:22:46;1.10;;;0.70;;
18983;SDS011;9626;52.552;13.436;2023-01-15T08:25:13;2.10;;;0.90;;
18983;SDS011;9626;52.552;13.436;2023-01-15T08:27:41;4.27;;;1.00;;
18983;SDS011;9626;52.552;13.436;2023-01-15T08:30:12;2.87;;;0.90;;
18983;SDS011;9626;52.552;13.436;2023-01-15T08:32:40;2.80;;;0.90;;
18983;SDS011;9626;52.552;13.436;2023-01-15T08:35:06;1.23;;;0.73;;
18983;SDS011;9626;52.552;13.436;2023-01-15T08:37:33;0.93;;;0.80;;
18983;SDS011;9626;52.552;13.436;2023-01-15T08:39:59;1.30;;;0.80;;
18983;SDS011;9626;52.552;13.436;2023-01-15T08:42:25;1.30;;;0.83;;
18983;SDS011;9626;52.552;13.436;2023-01-15T08:44:51;2.60;;;0.70;;
18983;SDS011;9626;52.552;13.436;2023-01-15T08:47:20;3.07;;;0.93;;
18983;SDS011;9626;52.552;13.436;2023-01-15T08:49:46;1.97;;;1.20;;
18983;SDS011;9626;52.552;13.436;2023-01-15T08:52:15;1.10;;;1.00;;
18983;SDS011;9626;52.552;13.436;2023-01-15T08:54:41;4.40;;;1.30;;
18983;SDS011;9626;52.552;13.436;2023-01-15T08:57:09;1.80;;;1.20;;
18983;SDS011;9626;52.552;13.436;2023-01-15T08:59:37;1.00;;;0.80;;
18983;SDS011;9626;52.552;13.436;2023-01-15T09:02:03;2.57;;;0.70;;
18983;SDS011;9626;52.552;13.436;2023-01-15T09:04:29;2.73;;;1.20;;
18983;SDS011;9626;52.552;13.436;2023-01-15T09:06:55;1.63;;;0.87;;
18983;SDS011;9626;52.552;13.436;2023-01-15T09:09:21;2.80;;;0.90;;
18983;SDS011;9626;52.552;13.436;2023-01-15T09:11:47;3.07;;;1.10;;
18983;SDS011;9626;52.552;13.436;2023-01-15T09:14:14;1.90;;;0.93;;
18983;SDS011;9626;52.552;13.436;2023-01-15T09:16:40;2.40;;;0.90;;
18983;SDS011;9626;52.552;13.436;2023-01-15T09:19:06;1.80;;;0.90;;
18983;SDS011;9626;52.552;13.436;2023-01-15T09:21:33;0.93;;;0.90;;
18983;SDS011;9626;52.552;13.436;2023-01-15T09:23:59;3.47;;;1.00;;
18983;SDS011;9626;52.552;13.436;2023-01-15T09:26:27;1.50;;;0.87;;
18983;SDS011;9626;52.552;13.436;2023-01-15T09:28:58;1.73;;;1.27;;
18983;SDS011;9626;52.552;13.436;2023-01-15T09:31:25;1.63;;;0.80;;
18983;SDS011;9626;52.552;13.436;2023-01-15T09:33:52;2.77;;;1.23;;
18983;SDS011;9626;52.552;13.436;2023-01-15T09:36:21;1.50;;;0.70;;
18983;SDS011;9626;52.552;13.436;2023-01-15T09:38:59;2.83;;;0.93;;
18983;SDS011;9626;52.552;13.436;2023-01-15T09:41:29;2.47;;;1.00;;
18983;SDS011;9626;52.552;13.436;2023-01-15T09:47:35;1.30;;;0.90;;
18983;SDS011;9626;52.552;13.436;2023-01-15T09:50:17;1.60;;;0.73;;
18983;SDS011;9626;52.552;13.436;2023-01-15T09:53:00;1.07;;;0.70;;
18983;SDS011;9626;52.552;13.436;2023-01-15T09:55:47;1.33;;;0.90;;
18983;SDS011;9626;52.552;13.436;2023-01-15T09:58:19;1.10;;;1.00;;
18983;SDS011;9626;52.552;13.436;2023-01-15T10:00:51;3.37;;;0.90;;
18983;SDS011;9626;52.552;13.436;2023-01-15T10:08:48;2.20;;;0.87;;
18983;SDS011;9626;52.552;13.436;2023-01-15T10:16:18;0.67;;;0.63;;
18983;SDS011;9626;52.552;13.436;2023-01-15T10:18:47;1.20;;;0.70;;
18983;SDS011;9626;52.552;13.436;2023-01-15T10:24:29;1.60;;;0.90;;
18983;SDS011;9626;52.552;13.436;2023-01-15T10:27:10;1.23;;;0.70;;
18983;SDS011;9626;52.552;13.436;2023-01-15T10:29:48;4.10;;;1.00;;
18983;SDS011;9626;52.552;13.436;2023-01-15T10:32:25;1.33;;;1.00;;
18983;SDS011;9626;52.552;13.436;2023-01-15T10:46:30;1.60;;;1.10;;
18983;SDS011;9626;52.552;13.436;2023-01-15T10:49:03;2.43;;;1.37;;
18983;SDS011;9626;52.552;13.436;2023-01-15T10:51:36;2.83;;;0.90;;
18983;SDS011;9626;52.552;13.436;2023-01-15T10:54:10;1.33;;;0.97;;
18983;SDS011;9626;52.552;13.436;2023-01-15T11:00:05;1.60;;;0.90;;
18983;SDS011;9626;52.552;13.436;2023-01-15T11:02:37;1.73;;;0.90;;
18983;SDS011;9626;52.552;13.436;2023-01-15T11:05:05;1.17;;;0.87;;
18983;SDS011;9626;52.552;13.436;2023-01-15T11:07:38;2.57;;;0.87;;
18983;SDS011;9626;52.552;13.436;2023-01-15T11:10:08;1.23;;;1.03;;
18983;SDS011;9626;52.552;13.436;2023-01-15T11:12:39;2.03;;;1.27;;
18983;SDS011;9626;52.552;13.436;2023-01-15T11:15:34;4.40;;;1.20;;
18983;SDS011;9626;52.552;13.436;2023-01-15T11:18:25;0.97;;;0.87;;
18983;SDS011;9626;52.552;13.436;2023-01-15T11:21:17;2.83;;;1.10;;
18983;SDS011;9626;52.552;13.436;2023-01-15T11:23:46;3.03;;;1.30;;
18983;SDS011;9626;52.552;13.436;2023-01-15T11:29:14;2.63;;;1.20;;
18983;SDS011;9626;52.552;13.436;2023-01-15T11:31:51;1.77;;;1.20;;
18983;SDS011;9626;52.552;13.436;2023-01-15T11:34:18;2.27;;;1.27;;
18983;SDS011;9626;52.552;13.436;2023-01-15T11:36:46;2.23;;;1.20;;
18983;SDS011;9626;52.552;13.436;2023-01-15T11:39:20;1.33;;;1.00;;
18983;SDS011;9626;52.552;13.436;2023-01-15T11:41:59;1.10;;;0.90;;
18983;SDS011;9626;52.552;13.436;2023-01-15T11:45:10;2.00;;;0.83;;
18983;SDS011;9626;52.552;13.436;2023-01-15T11:48:23;2.37;;;1.27;;
18983;SDS011;9626;52.552;13.436;2023-01-15T11:51:13;1.67;;;0.90;;
18983;SDS011;9626;52.552;13.436;2023-01-15T11:53:48;2.63;;;1.00;;
18983;SDS011;9626;52.552;13.436;2023-01-15T11:56:25;2.33;;;1.30;;
18983;SDS011;9626;52.552;13.436;2023-01-15T11:58:56;1.60;;;0.97;;
18983;SDS011;9626;52.552;13.436;2023-01-15T12:01:32;4.40;;;1.20;;
18983;SDS011;9626;52.552;13.436;2023-01-15T12:04:04;1.90;;;0.90;;
18983;SDS011;9626;52.552;13.436;2023-01-15T12:06:47;1.90;;;0.90;;
18983;SDS011;9626;52.552;13.436;2023-01-15T12:09:21;1.53;;;0.93;;
18983;SDS011;9626;52.552;13.436;2023-01-15T12:14:30;4.10;;;1.07;;
18983;SDS011;9626;52.552;13.436;2023-01-15T12:28:31;1.20;;;1.00;;
18983;SDS011;9626;52.552;13.436;2023-01-15T12:33:44;2.43;;;1.17;;
18983;SDS011;9626;52.552;13.436;2023-01-15T12:36:18;1.70;;;0.90;;
18983;SDS011;9626;52.552;13.436;2023-01-15T12:41:59;2.10;;;0.80;;
18983;SDS011;9626;52.552;13.436;2023-01-15T12:44:55;1.67;;;1.00;;
18983;SDS011;9626;52.552;13.436;2023-01-15T12:47:48;3.30;;;1.20;;
18983;SDS011;9626;52.552;13.436;2023-01-15T13:01:33;2.53;;;1.00;;
18983;SDS011;9626;52.552;13.436;2023-01-15T13:04:10;1.30;;;0.97;;
18983;SDS011;9626;52.552;13.436;2023-01-15T13:06:46;3.27;;;0.90;;
18983;SDS011;9626;52.552;13.436;2023-01-15T13:09:29;4.10;;;1.00;;
18983;SDS011;9626;52.552;13.436;2023-01-15T13:12:13;2.57;;;1.13;;
18983;SDS011;9626;52.552;13.436;2023-01-15T13:14:41;2.53;;;1.00;;
18983;SDS011;9626;52.552;13.436;2023-01-15T13:17:17;3.13;;;1.07;;
18983;SDS011;9626;52.552;13.436;2023-01-15T13:22:21;2.53;;;1.17;;
18983;SDS011;9626;52.552;13.436;2023-01-15T13:32:23;3.33;;;1.00;;
18983;SDS011;9626;52.552;13.436;2023-01-15T13:34:55;2.27;;;1.00;;
18983;SDS011;9626;52.552;13.436;2023-01-15T13:40:24;3.40;;;0.93;;
18983;SDS011;9626;52.552;13.436;2023-01-15T13:42:54;2.53;;;1.17;;
18983;SDS011;9626;52.552;13.436;2023-01-15T13:45:27;3.90;;;0.90;;
18983;SDS011;9626;52.552;13.436;2023-01-15T13:48:06;1.23;;;0.73;;
18983;SDS011;9626;52.552;13.436;2023-01-15T13:50:41;3.67;;;1.00;;
18983;SDS011;9626;52.552;13.436;2023-01-15T13:53:18;1.67;;;0.90;;
18983;SDS011;9626;52.552;13.436;2023-01-15T13:55:54;4.37;;;1.20;;
18983;SDS011;9626;52.552;13.436;2023-01-15T13:58:27;3.20;;;0.80;;
18983;SDS011;9626;52.552;13.436;2023-01-15T14:06:38;2.80;;;1.00;;
18983;SDS011;9626;52.552;13.436;2023-01-15T14:20:21;2.67;;;1.10;;
18983;SDS011;9626;52.552;13.436;2023-01-15T14:28:12;1.70;;;1.23;;
18983;SDS011;9626;52.552;13.436;2023-01-15T14:36:14;2.37;;;1.07;;
18983;SDS011;9626;52.552;13.436;2023-01-15T14:38:44;4.03;;;1.00;;
18983;SDS011;9626;52.552;13.436;2023-01-15T14:41:26;5.10;;;1.30;;
18983;SDS011;9626;52.552;13.436;2023-01-15T14:43:59;3.93;;;0.97;;
18983;SDS011;9626;52.552;13.436;2023-01-15T14:46:32;1.47;;;0.90;;
18983;SDS011;9626;52.552;13.436;2023-01-15T14:49:00;1.87;;;1.00;;
18983;SDS011;9626;52.552;13.436;2023-01-15T14:51:33;2.83;;;1.00;;
18983;SDS011;9626;52.552;13.436;2023-01-15T14:54:10;2.37;;;1.00;;
18983;SDS011;9626;52.552;13.436;2023-01-15T14:56:43;2.10;;;1.13;;
18983;SDS011;9626;52.552;13.436;2023-01-15T15:01:50;1.90;;;0.97;;
18983;SDS011;9626;52.552;13.436;2023-01-15T15:04:34;2.63;;;1.03;;
18983;SDS011;9626;52.552;13.436;2023-01-15T15:07:06;2.50;;;1.00;;
18983;SDS011;9626;52.552;13.436;2023-01-15T15:09:49;2.90;;;0.97;;
18983;SDS011;9626;52.552;13.436;2023-01-15T15:14:58;2.13;;;1.00;;
18983;SDS011;9626;52.552;13.436;2023-01-15T15:17:36;2.17;;;0.80;;
18983;SDS011;9626;52.552;13.436;2023-01-15T15:20:17;3.03;;;1.00;;
18983;SDS011;9626;52.552;13.436;2023-01-15T15:22:50;1.93;;;1.00;;
18983;SDS011;9626;52.552;13.436;2023-01-15T15:25:21;2.73;;;1.07;;
18983;SDS011;9626;52.552;13.436;2023-01-15T15:28:08;2.70;;;1.00;;
18983;SDS011;9626;52.552;13.436;2023-01-15T15:30:38;1.70;;;0.90;;
18983;SDS011;9626;52.552;13.436;2023-01-15T15:33:08;2.43;;;1.00;;
18983;SDS011;9626;52.552;13.436;2023-01-15T15:35:43;2.00;;;0.97;;
18983;SDS011;9626;52.552;13.436;2023-01-15T15:38:14;3.47;;;1.20;;
18983;SDS011;9626;52.552;13.436;2023-01-15T15:40:44;5.03;;;1.17;;
18983;SDS011;9626;52.552;13.436;2023-01-15T15:43:15;3.80;;;1.10;;
18983;SDS011;9626;52.552;13.436;2023-01-15T15:46:05;2.07;;;1.03;;
18983;SDS011;9626;52.552;13.436;2023-01-15T15:49:07;2.47;;;1.30;;
18983;SDS011;9626;52.552;13.436;2023-01-15T15:51:36;2.20;;;1.00;;
18983;SDS011;9626;52.552;13.436;2023-01-15T15:54:25;1.60;;;1.10;;
18983;SDS011;9626;52.552;13.436;2023-01-15T15:56:57;1.80;;;0.80;;
18983;SDS011;9626;52.552;13.436;2023-01-15T15:59:26;1.20;;;0.90;;
18983;SDS011;9626;52.552;13.436;2023-01-15T16:02:15;3.77;;;1.20;;
18983;SDS011;9626;52.552;13.436;2023-01-15T16:04:44;1.40;;;1.03;;
18983;SDS011;9626;52.552;13.436;2023-01-15T16:07:25;2.23;;;1.20;;
18983;SDS011;9626;52.552;13.436;2023-01-15T16:09:56;1.60;;;1.07;;
18983;SDS011;9626;52.552;13.436;2023-01-15T16:12:25;4.40;;;0.97;;
18983;SDS011;9626;52.552;13.436;2023-01-15T16:14:55;2.53;;;1.23;;
18983;SDS011;9626;52.552;13.436;2023-01-15T16:17:22;1.93;;;1.00;;
18983;SDS011;9626;52.552;13.436;2023-01-15T16:19:52;2.50;;;0.87;;
18983;SDS011;9626;52.552;13.436;2023-01-15T16:22:20;2.73;;;1.30;;
18983;SDS011;9626;52.552;13.436;2023-01-15T16:24:56;1.57;;;1.00;;
18983;SDS011;9626;52.552;13.436;2023-01-15T16:27:25;1.20;;;0.80;;
18983;SDS011;9626;52.552;13.436;2023-01-15T16:29:56;3.53;;;0.90;;
18983;SDS011;9626;52.552;13.436;2023-01-15T16:32:23;1.17;;;0.80;;
18983;SDS011;9626;52.552;13.436;2023-01-15T16:34:59;1.37;;;0.60;;
18983;SDS011;9626;52.552;13.436;2023-01-15T16:37:31;2.77;;;0.80;;
18983;SDS011;9626;52.552;13.436;2023-01-15T16:40:00;3.40;;;0.80;;
18983;SDS011;9626;52.552;13.436;2023-01-15T16:42:35;1.47;;;0.87;;
18983;SDS011;9626;52.552;13.436;2023-01-15T16:45:31;1.50;;;1.10;;
18983;SDS011;9626;52.552;13.436;2023-01-15T16:50:33;3.17;;;1.03;;
18983;SDS011;9626;52.552;13.436;2023-01-15T16:53:00;2.27;;;1.33;;
18983;SDS011;9626;52.552;13.436;2023-01-15T16:58:16;1.93;;;1.10;;
18983;SDS011;9626;52.552;13.436;2023-01-15T17:00:45;2.33;;;1.00;;
18983;SDS011;9626;52.552;13.436;2023-01-15T17:03:17;3.27;;;1.30;;
18983;SDS011;9626;52.552;13.436;2023-01-15T17:05:46;3.03;;;1.50;;
18983;SDS011;9626;52.552;13.436;2023-01-15T17:08:15;1.97;;;1.10;;
18983;SDS011;9626;52.552;13.436;2023-01-15T17:10:50;3.67;;;1.10;;
18983;SDS011;9626;52.552;13.436;2023-01-15T17:13:22;2.33;;;1.00;;
18983;SDS011;9626;52.552;13.436;2023-01-15T17:16:05;2.77;;;0.90;;
18983;SDS011;9626;52.552;13.436;2023-01-15T17:18:31;2.67;;;0.80;;
18983;SDS011;9626;52.552;13.436;2023-01-15T17:20:58;2.33;;;1.30;;
18983;SDS011;9626;52.552;13.436;2023-01-15T17:23:25;2.17;;;1.13;;
18983;SDS011;9626;52.552;13.436;2023-01-15T17:25:57;3.03;;;1.17;;
18983;SDS011;9626;52.552;13.436;2023-01-15T17:28:23;2.00;;;1.00;;
18983;SDS011;9626;52.552;13.436;2023-01-15T17:30:51;1.20;;;1.00;;
18983;SDS011;9626;52.552;13.436;2023-01-15T17:33:18;2.17;;;1.13;;
18983;SDS011;9626;52.552;13.436;2023-01-15T17:35:45;1.90;;;1.30;;
18983;SDS011;9626;52.552;13.436;2023-01-15T17:40:56;2.17;;;1.00;;
18983;SDS011;9626;52.552;13.436;2023-01-15T17:43:23;2.47;;;1.07;;
18983;SDS011;9626;52.552;13.436;2023-01-15T17:45:50;2.50;;;1.20;;
18983;SDS011;9626;52.552;13.436;2023-01-15T17:48:17;8.33;;;1.67;;
18983;SDS011;9626;52.552;13.436;2023-01-15T17:50:43;5.57;;;1.20;;
18983;SDS011;9626;52.552;13.436;2023-01-15T17:53:09;3.80;;;1.63;;
18983;SDS011;9626;52.552;13.436;2023-01-15T17:55:35;3.67;;;1.13;;